createdAt,value
2023-02-19T00:00:16.126Z,24.50
2023-02-19T00:03:05.142Z,22.20
2023-02-19T00:05:36.117Z,7.30
2023-02-19T00:08:05.970Z,11.60
2023-02-19T00:10:34.656Z,9.20
2023-02-19T00:13:03.645Z,7.50
2023-02-19T00:15:33.563Z,21.30
2023-02-19T00:18:02.122Z,110.90
2023-02-19T00:20:31.124Z,80.70
2023-02-19T00:23:00.267Z,42.90
2023-02-19T00:25:28.915Z,80.80
2023-02-19T00:27:57.892Z,106.20
2023-02-19T00:30:27.169Z,123.30
2023-02-19T00:32:56.596Z,82.70
2023-02-19T00:35:25.493Z,112.40
2023-02-19T00:37:54.630Z,84.60
2023-02-19T00:40:23.150Z,51.10
2023-02-19T00:42:52.183Z,41.20
2023-02-19T00:45:22.432Z,56.40
2023-02-19T00:47:51.048Z,53.60
2023-02-19T00:50:19.889Z,21.00
2023-02-19T00:52:48.901Z,8.30
2023-02-19T00:55:17.970Z,10.20
2023-02-19T00:57:46.588Z,7.60
2023-02-19T01:00:15.421Z,10.10
2023-02-19T01:02:44.347Z,11.30
2023-02-19T01:05:13.375Z,10.60
2023-02-19T01:07:42.222Z,11.60
2023-02-19T01:10:11.265Z,10.40
2023-02-19T01:12:40.102Z,14.30
2023-02-19T01:15:09.301Z,13.30
2023-02-19T01:17:38.374Z,8.80
2023-02-19T01:20:07.587Z,11.00
2023-02-19T01:22:36.456Z,9.30
2023-02-19T01:25:05.655Z,7.90
2023-02-19T01:27:34.281Z,10.90
2023-02-19T01:30:03.614Z,14.60
2023-02-19T01:32:32.435Z,9.40
2023-02-19T01:35:01.368Z,7.00
2023-02-19T01:37:32.565Z,9.20
2023-02-19T01:40:01.190Z,6.90
2023-02-19T01:42:30.274Z,13.80
2023-02-19T01:45:24.034Z,15.10
2023-02-19T01:48:01.934Z,12.40
2023-02-19T01:50:35.919Z,28.10
2023-02-19T01:53:09.143Z,4.70
2023-02-19T01:55:39.574Z,4.70
2023-02-19T02:00:40.071Z,6.90
2023-02-19T02:03:09.072Z,7.20
2023-02-19T02:05:46.566Z,4.90
2023-02-19T02:08:36.086Z,6.30
2023-02-19T02:11:05.702Z,21.60
2023-02-19T02:13:36.980Z,19.80
2023-02-19T02:16:14.504Z,20.60
2023-02-19T02:19:06.910Z,12.20
2023-02-19T02:22:10.186Z,10.60
2023-02-19T02:25:23.909Z,15.50
2023-02-19T02:28:07.475Z,9.80
2023-02-19T02:30:43.955Z,9.60
2023-02-19T02:33:34.742Z,8.70
2023-02-19T02:36:13.309Z,10.70
2023-02-19T02:38:45.652Z,9.70
2023-02-19T02:41:16.285Z,11.10
2023-02-19T02:43:44.969Z,8.20
2023-02-19T02:46:19.686Z,10.90
2023-02-19T02:48:54.357Z,6.20
2023-02-19T02:51:32.493Z,6.90
2023-02-19T02:54:29.329Z,10.90
2023-02-19T02:57:00.528Z,21.10
2023-02-19T02:59:36.130Z,5.80
2023-02-19T03:02:13.275Z,7.40
2023-02-19T03:05:25.591Z,6.00
2023-02-19T03:07:57.343Z,5.90
2023-02-19T03:10:35.598Z,6.20
2023-02-19T03:13:29.902Z,5.60
2023-02-19T03:16:26.829Z,5.80
2023-02-19T03:19:18.204Z,5.90
2023-02-19T03:22:14.691Z,4.90
2023-02-19T03:25:08.474Z,6.40
2023-02-19T03:27:40.656Z,6.20
2023-02-19T03:30:14.197Z,7.10
2023-02-19T03:32:55.024Z,9.20
2023-02-19T03:35:27.769Z,9.10
2023-02-19T03:38:18.906Z,7.30
2023-02-19T03:41:14.088Z,6.40
2023-02-19T03:43:59.206Z,5.60
2023-02-19T03:47:12.763Z,5.80
2023-02-19T03:49:56.634Z,5.10
2023-02-19T03:52:47.500Z,6.40
2023-02-19T03:55:37.612Z,6.00
2023-02-19T03:58:23.869Z,6.30
2023-02-19T04:01:00.702Z,6.40
2023-02-19T04:04:09.482Z,8.80
2023-02-19T04:06:42.436Z,6.10
2023-02-19T04:09:15.375Z,5.60
2023-02-19T04:11:44.753Z,10.60
2023-02-19T04:14:47.484Z,8.30
2023-02-19T04:17:32.616Z,6.80
2023-02-19T04:20:06.059Z,7.80
2023-02-19T04:22:39.327Z,8.90
2023-02-19T04:25:09.285Z,8.90
2023-02-19T04:30:14.617Z,17.10
2023-02-19T04:32:43.970Z,15.00
2023-02-19T04:35:12.504Z,15.10
2023-02-19T04:37:41.182Z,11.30
2023-02-19T04:40:10.624Z,12.40
2023-02-19T04:42:39.191Z,11.80
2023-02-19T04:45:08.570Z,9.40
2023-02-19T04:47:37.817Z,11.30
2023-02-19T04:50:06.551Z,11.60
2023-02-19T04:52:37.803Z,11.00
2023-02-19T04:55:07.500Z,10.30
2023-02-19T04:57:36.413Z,9.70
2023-02-19T05:00:07.000Z,10.40
2023-02-19T05:02:36.305Z,11.20
2023-02-19T05:05:05.084Z,7.00
2023-02-19T05:07:34.286Z,7.80
2023-02-19T05:10:04.744Z,6.80
2023-02-19T05:12:33.379Z,6.60
2023-02-19T05:15:02.224Z,5.80
2023-02-19T05:17:34.070Z,5.90
2023-02-19T05:20:02.861Z,5.60
2023-02-19T05:22:32.217Z,4.90
2023-02-19T05:25:00.885Z,4.60
2023-02-19T05:27:31.450Z,5.20
2023-02-19T05:30:00.449Z,7.20
2023-02-19T05:32:29.061Z,6.10
2023-02-19T05:34:58.074Z,3.50
2023-02-19T05:37:27.860Z,3.80
2023-02-19T05:39:56.529Z,3.70
2023-02-19T05:42:25.781Z,3.60
2023-02-19T05:44:54.859Z,2.90
2023-02-19T05:47:23.442Z,6.80
2023-02-19T05:49:53.577Z,6.40
2023-02-19T05:52:22.583Z,5.40
2023-02-19T05:54:51.219Z,8.60
2023-02-19T05:57:22.102Z,4.80
2023-02-19T05:59:51.062Z,5.60
2023-02-19T06:02:19.613Z,5.40
2023-02-19T06:04:49.161Z,4.80
2023-02-19T06:07:19.133Z,3.90
2023-02-19T06:09:51.618Z,6.10
2023-02-19T06:12:20.492Z,5.60
2023-02-19T06:14:49.901Z,5.30
2023-02-19T06:17:19.062Z,5.70
2023-02-19T06:19:48.107Z,3.10
2023-02-19T06:22:17.298Z,6.70
2023-02-19T06:24:47.677Z,4.70
2023-02-19T06:27:16.870Z,3.10
2023-02-19T06:29:45.641Z,4.50
2023-02-19T06:32:15.005Z,8.20
2023-02-19T06:34:44.177Z,11.70
2023-02-19T06:37:12.872Z,7.00
2023-02-19T06:39:42.090Z,7.00
2023-02-19T06:42:11.146Z,8.30
2023-02-19T06:44:39.885Z,7.30
2023-02-19T06:47:08.906Z,9.30
2023-02-19T06:49:40.444Z,6.20
2023-02-19T06:52:09.346Z,6.90
2023-02-19T06:54:38.536Z,6.40
2023-02-19T06:57:07.596Z,5.90
2023-02-19T06:59:36.305Z,10.90
2023-02-19T07:02:05.255Z,9.70
2023-02-19T07:04:33.988Z,6.20
2023-02-19T07:07:02.723Z,7.30
2023-02-19T07:09:34.815Z,5.00
2023-02-19T07:12:04.055Z,4.20
2023-02-19T07:14:32.917Z,10.50
2023-02-19T07:17:01.490Z,6.00
2023-02-19T07:19:30.810Z,6.00
2023-02-19T07:21:59.519Z,7.60
2023-02-19T07:24:28.125Z,5.80
2023-02-19T07:26:57.380Z,6.50
2023-02-19T07:29:26.060Z,7.20
2023-02-19T07:31:55.891Z,5.40
2023-02-19T07:34:25.233Z,5.10
2023-02-19T07:36:53.900Z,8.00
2023-02-19T07:39:22.527Z,9.20
2023-02-19T07:41:51.375Z,7.90
2023-02-19T07:44:28.587Z,4.60
2023-02-19T07:46:57.417Z,5.10
2023-02-19T07:49:26.150Z,6.70
2023-02-19T07:51:55.331Z,7.60
2023-02-19T07:54:24.300Z,4.80
2023-02-19T07:56:54.796Z,5.40
2023-02-19T07:59:24.214Z,6.90
2023-02-19T08:02:12.152Z,4.80
2023-02-19T08:04:41.002Z,6.10
2023-02-19T08:07:09.721Z,8.90
2023-02-19T08:09:40.844Z,6.80
2023-02-19T08:12:30.815Z,8.70
2023-02-19T08:14:59.868Z,13.80
2023-02-19T08:17:30.559Z,11.20
2023-02-19T08:19:59.387Z,7.20
2023-02-19T08:22:28.423Z,11.30
2023-02-19T08:24:57.575Z,6.00
2023-02-19T08:27:26.282Z,8.20
2023-02-19T08:29:55.050Z,7.60
2023-02-19T08:32:24.046Z,7.80
2023-02-19T08:34:53.123Z,8.60
2023-02-19T08:37:21.817Z,7.30
2023-02-19T08:39:53.274Z,3.20
2023-02-19T08:42:22.006Z,7.20
2023-02-19T08:44:50.838Z,4.80
2023-02-19T08:47:20.160Z,4.00
2023-02-19T08:49:49.086Z,3.70
2023-02-19T08:52:17.748Z,7.50
2023-02-19T08:54:46.850Z,13.60
2023-02-19T08:57:17.557Z,17.50
2023-02-19T08:59:46.681Z,7.40
2023-02-19T09:02:15.498Z,5.30
2023-02-19T09:04:45.194Z,4.80
2023-02-19T09:07:14.219Z,9.30
2023-02-19T09:09:43.014Z,36.80
2023-02-19T09:12:13.139Z,43.50
2023-02-19T09:14:42.300Z,18.50
2023-02-19T09:17:11.270Z,16.80
2023-02-19T09:19:40.003Z,7.50
2023-02-19T09:22:08.867Z,7.30
2023-02-19T09:24:37.924Z,5.20
2023-02-19T09:27:06.925Z,6.10
2023-02-19T09:29:35.665Z,5.90
2023-02-19T09:32:04.445Z,5.90
2023-02-19T09:34:35.546Z,5.40
2023-02-19T09:37:04.521Z,6.30
2023-02-19T09:39:35.117Z,4.60
2023-02-19T09:42:16.138Z,5.80
2023-02-19T09:44:49.340Z,10.70
2023-02-19T09:47:21.289Z,4.70
2023-02-19T09:49:54.914Z,9.80
2023-02-19T09:52:38.861Z,12.70
2023-02-19T09:55:18.588Z,14.80
2023-02-19T09:57:48.672Z,14.20
2023-02-19T10:02:54.170Z,7.90
2023-02-19T10:05:26.320Z,11.70
2023-02-19T10:07:56.321Z,11.30
2023-02-19T10:13:29.469Z,8.20
2023-02-19T10:16:01.523Z,14.70
2023-02-19T10:18:41.548Z,16.40
2023-02-19T10:23:43.717Z,7.20
2023-02-19T10:26:12.490Z,7.70
2023-02-19T10:28:41.177Z,7.40
2023-02-19T10:31:22.368Z,6.60
2023-02-19T10:33:58.886Z,6.00
2023-02-19T10:36:34.487Z,8.60
2023-02-19T10:39:18.064Z,8.10
2023-02-19T10:41:46.771Z,10.00
2023-02-19T10:44:21.678Z,32.80
2023-02-19T10:46:55.610Z,24.80
2023-02-19T10:49:36.187Z,8.00
2023-02-19T10:52:28.502Z,6.10
2023-02-19T10:55:26.468Z,5.50
2023-02-19T10:57:56.023Z,5.70
2023-02-19T11:00:27.747Z,4.50
2023-02-19T11:03:20.183Z,8.30
2023-02-19T11:06:02.969Z,4.10
2023-02-19T11:08:48.994Z,15.00
2023-02-19T11:11:38.283Z,15.10
2023-02-19T11:14:17.928Z,39.40
2023-02-19T11:16:53.305Z,16.50
2023-02-19T11:19:41.369Z,11.50
2023-02-19T11:22:21.353Z,6.50
2023-02-19T11:25:07.092Z,9.20
2023-02-19T11:27:36.853Z,12.00
2023-02-19T11:30:30.604Z,9.40
2023-02-19T11:33:18.311Z,6.40
2023-02-19T11:35:48.981Z,11.10
2023-02-19T11:38:19.890Z,6.40
2023-02-19T11:41:00.418Z,5.90
2023-02-19T11:43:51.232Z,16.00
2023-02-19T11:46:42.190Z,7.90
2023-02-19T11:49:40.755Z,8.90
2023-02-19T11:52:39.068Z,9.00
2023-02-19T11:55:51.703Z,4.10
2023-02-19T11:58:44.937Z,5.70
2023-02-19T12:01:36.255Z,5.10
2023-02-19T12:04:23.750Z,7.30
2023-02-19T12:07:08.364Z,5.80
2023-02-19T12:09:46.937Z,4.40
2023-02-19T12:13:01.169Z,5.90
2023-02-19T12:15:42.898Z,4.60
2023-02-19T12:18:26.919Z,6.50
2023-02-19T12:21:21.739Z,7.20
2023-02-19T12:24:08.585Z,12.70
2023-02-19T12:27:13.543Z,15.80
2023-02-19T12:30:09.158Z,20.00
2023-02-19T12:32:59.902Z,9.90
2023-02-19T12:35:52.749Z,10.60
2023-02-19T12:38:38.686Z,20.20
2023-02-19T12:41:20.093Z,18.00
2023-02-19T12:43:56.112Z,12.80
2023-02-19T12:46:32.312Z,10.90
2023-02-19T12:49:26.489Z,13.90
2023-02-19T12:52:18.970Z,39.20
2023-02-19T12:54:58.276Z,20.30
2023-02-19T12:57:31.965Z,16.00
2023-02-19T13:00:23.639Z,14.50
2023-02-19T13:03:21.722Z,23.20
2023-02-19T13:06:03.709Z,29.30
2023-02-19T13:09:05.381Z,20.60
2023-02-19T13:11:43.843Z,21.00
2023-02-19T13:14:20.163Z,16.20
2023-02-19T13:16:54.167Z,14.00
2023-02-19T13:19:23.576Z,13.60
2023-02-19T13:22:32.461Z,17.30
2023-02-19T13:25:03.054Z,9.30
2023-02-19T13:27:44.534Z,6.30
2023-02-19T13:30:32.282Z,11.90
2023-02-19T13:33:35.466Z,7.70
2023-02-19T13:36:13.206Z,7.10
2023-02-19T13:38:46.629Z,8.70
2023-02-19T13:41:40.713Z,8.60
2023-02-19T13:44:22.160Z,10.70
2023-02-19T13:46:51.619Z,10.60
2023-02-19T13:49:29.264Z,7.90
2023-02-19T13:52:02.823Z,27.40
2023-02-19T13:54:40.521Z,25.10
2023-02-19T13:57:18.616Z,20.80
2023-02-19T13:59:48.872Z,27.30
2023-02-19T14:02:20.989Z,24.60
2023-02-19T14:04:52.086Z,13.80
2023-02-19T14:07:32.249Z,13.30
2023-02-19T14:10:02.219Z,11.80
2023-02-19T14:15:40.740Z,11.60
2023-02-19T14:18:42.128Z,11.40
2023-02-19T14:21:28.700Z,12.70
2023-02-19T14:23:59.161Z,8.90
2023-02-19T14:26:31.148Z,9.00
2023-02-19T14:29:02.348Z,11.00
2023-02-19T14:31:37.714Z,11.30
2023-02-19T14:34:25.480Z,12.30
2023-02-19T14:37:01.386Z,9.30
2023-02-19T14:39:33.557Z,15.50
2023-02-19T14:42:07.236Z,13.50
2023-02-19T14:45:03.257Z,10.10
2023-02-19T14:47:38.438Z,8.20
2023-02-19T14:50:28.110Z,7.10
2023-02-19T14:53:04.652Z,7.80
2023-02-19T14:55:36.628Z,8.50
2023-02-19T14:58:19.366Z,6.50
2023-02-19T15:00:48.216Z,21.10
2023-02-19T15:03:27.167Z,12.20
2023-02-19T15:06:05.658Z,10.40
2023-02-19T15:11:13.125Z,12.80
2023-02-19T15:13:45.993Z,8.20
2023-02-19T15:16:25.697Z,8.20
2023-02-19T15:18:55.593Z,12.20
2023-02-19T15:21:41.755Z,10.20
2023-02-19T15:24:14.606Z,40.90
2023-02-19T15:26:55.617Z,57.90
2023-02-19T15:29:27.170Z,11.70
2023-02-19T15:31:58.685Z,9.30
2023-02-19T15:34:29.978Z,11.30
2023-02-19T15:37:08.301Z,18.20
2023-02-19T15:39:41.791Z,18.90
2023-02-19T15:42:44.150Z,23.70
2023-02-19T15:45:21.510Z,17.90
2023-02-19T15:48:19.912Z,17.00
2023-02-19T15:51:08.481Z,17.60
2023-02-19T15:53:45.485Z,15.10
2023-02-19T15:56:28.475Z,24.20
2023-02-19T15:59:06.579Z,31.00
2023-02-19T16:01:39.945Z,24.30
2023-02-19T16:04:17.805Z,21.20
2023-02-19T16:06:58.955Z,17.50
2023-02-19T16:09:39.196Z,20.60
2023-02-19T16:14:51.463Z,22.60
2023-02-19T16:20:01.860Z,20.20
2023-02-19T16:22:35.501Z,26.10
2023-02-19T16:25:07.527Z,25.80
2023-02-19T16:27:42.200Z,27.50
2023-02-19T16:30:31.241Z,22.90
2023-02-19T16:33:36.617Z,30.20
2023-02-19T16:36:19.705Z,20.20
2023-02-19T16:39:15.875Z,24.20
2023-02-19T16:41:48.309Z,26.70
2023-02-19T16:44:21.658Z,22.60
2023-02-19T16:47:20.569Z,25.10
2023-02-19T16:49:49.161Z,16.20
2023-02-19T16:52:17.954Z,18.20
2023-02-19T16:54:48.674Z,21.20
2023-02-19T16:57:17.665Z,21.80
2023-02-19T16:59:47.478Z,13.50
2023-02-19T17:02:20.984Z,12.40
2023-02-19T17:04:52.120Z,13.90
2023-02-19T17:07:22.631Z,14.90
2023-02-19T17:09:51.455Z,18.30
2023-02-19T17:12:20.721Z,11.50
2023-02-19T17:14:49.549Z,16.30
2023-02-19T17:17:18.464Z,24.30
2023-02-19T17:19:47.196Z,33.50
2023-02-19T17:22:17.853Z,23.60
2023-02-19T17:24:48.455Z,14.80
2023-02-19T17:27:17.279Z,14.40
2023-02-19T17:29:46.042Z,17.70
2023-02-19T17:32:18.123Z,12.70
2023-02-19T17:34:49.980Z,16.70
2023-02-19T17:37:18.948Z,14.60
2023-02-19T17:39:47.658Z,12.90
2023-02-19T17:42:16.604Z,15.90
2023-02-19T17:44:47.053Z,14.70
2023-02-19T17:47:15.761Z,14.60
2023-02-19T17:49:44.777Z,11.20
2023-02-19T17:52:17.838Z,14.80
2023-02-19T17:54:47.164Z,14.50
2023-02-19T17:57:16.054Z,11.70
2023-02-19T17:59:44.674Z,11.20
2023-02-19T18:02:27.240Z,20.40
2023-02-19T18:05:16.279Z,13.40
2023-02-19T18:08:08.265Z,14.70
2023-02-19T18:10:55.408Z,11.30
2023-02-19T18:13:50.850Z,6.30
2023-02-19T18:16:39.428Z,9.20
2023-02-19T18:19:27.430Z,11.30
2023-02-19T18:22:13.611Z,6.10
2023-02-19T18:25:03.075Z,16.70
2023-02-19T18:27:48.440Z,11.10
2023-02-19T18:30:34.602Z,12.40
2023-02-19T18:33:22.315Z,13.00
2023-02-19T18:36:11.432Z,15.40
2023-02-19T18:38:58.372Z,12.90
2023-02-19T18:41:43.453Z,10.90
2023-02-19T18:44:24.441Z,13.20
2023-02-19T18:46:58.406Z,11.20
2023-02-19T18:49:29.796Z,13.70
2023-02-19T18:52:02.742Z,35.30
2023-02-19T18:54:32.046Z,18.20
2023-02-19T18:57:02.138Z,12.90
2023-02-19T18:59:32.186Z,12.70
2023-02-19T19:04:30.375Z,12.70
2023-02-19T19:07:00.361Z,15.90
2023-02-19T19:09:29.398Z,14.70
2023-02-19T19:11:58.399Z,10.60
2023-02-19T19:14:27.537Z,9.00
2023-02-19T19:16:56.596Z,10.70
2023-02-19T19:19:25.654Z,12.70
2023-02-19T19:21:55.367Z,30.40
2023-02-19T19:24:25.481Z,20.70
2023-02-19T19:26:54.587Z,11.10
2023-02-19T19:29:24.212Z,7.50
2023-02-19T19:31:53.739Z,9.30
2023-02-19T19:34:22.885Z,8.40
2023-02-19T19:36:52.457Z,8.50
2023-02-19T19:39:21.229Z,10.10
2023-02-19T19:41:59.127Z,12.70
2023-02-19T19:44:28.250Z,8.70
2023-02-19T19:46:56.893Z,17.50
2023-02-19T19:49:25.862Z,13.00
2023-02-19T19:51:58.582Z,14.30
2023-02-19T19:54:28.281Z,9.10
2023-02-19T19:56:57.173Z,60.60
2023-02-19T19:59:25.857Z,24.80
2023-02-19T20:02:04.749Z,14.20
2023-02-19T20:04:45.453Z,10.00
2023-02-19T20:07:15.605Z,9.00
2023-02-19T20:09:48.686Z,12.80
2023-02-19T20:12:18.302Z,11.10
2023-02-19T20:14:47.407Z,9.60
2023-02-19T20:17:16.441Z,16.40
2023-02-19T20:19:46.284Z,17.90
2023-02-19T20:22:15.257Z,27.40
2023-02-19T20:24:54.998Z,31.90
2023-02-19T20:27:24.028Z,25.30
2023-02-19T20:29:54.043Z,19.50
2023-02-19T20:32:23.142Z,14.90
2023-02-19T20:34:51.934Z,13.60
2023-02-19T20:37:20.745Z,12.10
2023-02-19T20:39:52.034Z,21.40
2023-02-19T20:42:21.183Z,24.20
2023-02-19T20:44:50.255Z,11.50
2023-02-19T20:47:19.006Z,9.60
2023-02-19T20:49:48.039Z,16.80
2023-02-19T20:52:17.568Z,14.30
2023-02-19T20:54:46.262Z,11.80
2023-02-19T20:57:15.461Z,22.20
2023-02-19T20:59:44.535Z,21.70
2023-02-19T21:02:23.964Z,9.50
2023-02-19T21:04:53.054Z,14.20
2023-02-19T21:07:23.242Z,14.60
2023-02-19T21:09:52.775Z,7.70
2023-02-19T21:12:22.925Z,7.90
2023-02-19T21:17:20.686Z,9.80
2023-02-19T21:19:50.329Z,13.20
2023-02-19T21:22:19.497Z,16.30
2023-02-19T21:24:52.613Z,19.40
2023-02-19T21:27:21.668Z,23.00
2023-02-19T21:29:50.271Z,21.80
2023-02-19T21:32:19.460Z,24.10
2023-02-19T21:34:49.256Z,17.60
2023-02-19T21:37:17.802Z,12.10
2023-02-19T21:39:47.757Z,17.00
2023-02-19T21:42:19.076Z,16.20
2023-02-19T21:44:48.726Z,16.80
2023-02-19T21:47:17.322Z,14.70
2023-02-19T21:49:46.233Z,14.80
2023-02-19T21:52:15.604Z,18.50
2023-02-19T21:54:46.785Z,18.70
2023-02-19T21:57:16.023Z,16.10
2023-02-19T21:59:44.809Z,19.00
2023-02-19T22:02:13.769Z,36.00
2023-02-19T22:04:42.859Z,19.00
2023-02-19T22:07:11.805Z,16.90
2023-02-19T22:09:40.505Z,17.00
2023-02-19T22:12:09.624Z,19.30
2023-02-19T22:14:38.561Z,27.70
2023-02-19T22:17:07.140Z,30.60
2023-02-19T22:19:36.493Z,18.50
2023-02-19T22:22:05.665Z,14.10
2023-02-19T22:24:34.334Z,14.40
2023-02-19T22:27:03.672Z,19.70
2023-02-19T22:29:32.588Z,13.40
2023-02-19T22:32:01.412Z,20.00
2023-02-19T22:34:30.968Z,10.60
2023-02-19T22:36:59.875Z,20.90
2023-02-19T22:39:28.665Z,24.90
2023-02-19T22:41:57.482Z,47.10
2023-02-19T22:44:26.922Z,19.60
2023-02-19T22:46:56.763Z,14.70
2023-02-19T22:49:25.798Z,11.30
2023-02-19T22:52:01.130Z,9.10
2023-02-19T22:54:30.104Z,8.80
2023-02-19T22:56:59.059Z,12.10
2023-02-19T22:59:27.853Z,11.70
2023-02-19T23:01:56.834Z,12.30
2023-02-19T23:04:26.565Z,13.00
2023-02-19T23:06:55.757Z,15.20
2023-02-19T23:09:28.014Z,15.60
2023-02-19T23:12:05.726Z,24.10
2023-02-19T23:14:35.183Z,30.40
2023-02-19T23:17:04.582Z,17.40
2023-02-19T23:19:33.561Z,16.60
2023-02-19T23:22:03.651Z,13.20
2023-02-19T23:24:32.294Z,14.90
2023-02-19T23:27:01.431Z,18.30
2023-02-19T23:29:31.305Z,73.10
2023-02-19T23:32:00.644Z,42.00
2023-02-19T23:34:29.667Z,26.40
2023-02-19T23:37:02.656Z,22.10
2023-02-19T23:39:32.036Z,20.60
2023-02-19T23:42:01.170Z,16.30
2023-02-19T23:44:29.757Z,18.80
2023-02-19T23:46:58.638Z,17.90
2023-02-19T23:49:27.846Z,13.00
2023-02-19T23:51:56.538Z,24.80
2023-02-19T23:54:25.402Z,21.80
2023-02-19T23:56:55.825Z,20.00
